createdAt,value
2019-03-23T00:02:04.937Z,36.00
2019-03-23T00:04:37.621Z,36.10
2019-03-23T00:07:10.391Z,36.20
2019-03-23T00:09:42.972Z,36.40
2019-03-23T00:12:15.559Z,36.40
2019-03-23T00:14:48.224Z,36.60
2019-03-23T00:17:20.957Z,36.60
2019-03-23T00:19:53.579Z,36.60
2019-03-23T00:22:26.136Z,36.90
2019-03-23T00:25:00.481Z,36.90
2019-03-23T00:27:33.078Z,37.00
2019-03-23T00:30:06.761Z,37.10
2019-03-23T00:32:39.369Z,37.20
2019-03-23T00:35:18.372Z,37.30
2019-03-23T00:37:52.170Z,37.60
2019-03-23T00:40:24.741Z,37.50
2019-03-23T00:42:57.551Z,37.70
2019-03-23T00:45:30.022Z,37.80
2019-03-23T00:48:02.646Z,38.00
2019-03-23T00:50:35.142Z,38.10
2019-03-23T00:53:09.121Z,38.70
2019-03-23T00:55:41.661Z,38.10
2019-03-23T00:58:14.286Z,38.30
2019-03-23T01:00:46.964Z,38.50
2019-03-23T01:03:19.612Z,38.40
2019-03-23T01:05:52.168Z,38.40
2019-03-23T01:08:26.560Z,38.70
2019-03-23T01:11:00.186Z,38.70
2019-03-23T01:13:32.790Z,38.90
2019-03-23T01:16:05.357Z,39.00
2019-03-23T01:18:37.875Z,39.20
2019-03-23T01:21:10.462Z,39.50
2019-03-23T01:23:43.107Z,39.70
2019-03-23T01:26:15.855Z,40.00
2019-03-23T01:28:48.323Z,40.20
2019-03-23T01:31:20.887Z,40.20
2019-03-23T01:33:53.367Z,40.40
2019-03-23T01:36:25.900Z,40.50
2019-03-23T01:38:58.415Z,40.60
2019-03-23T01:41:30.927Z,40.50
2019-03-23T01:44:03.479Z,40.70
2019-03-23T01:46:35.981Z,40.80
2019-03-23T01:49:08.507Z,41.00
2019-03-23T01:51:40.990Z,41.00
2019-03-23T01:54:13.510Z,41.00
2019-03-23T01:56:46.075Z,41.10
2019-03-23T01:59:18.614Z,41.20
2019-03-23T02:01:51.167Z,41.40
2019-03-23T02:04:23.779Z,41.80
2019-03-23T02:06:56.310Z,41.80
2019-03-23T02:09:28.903Z,41.90
2019-03-23T02:12:01.582Z,42.00
2019-03-23T02:14:34.066Z,42.10
2019-03-23T02:17:06.604Z,42.40
2019-03-23T02:19:39.254Z,42.50
2019-03-23T02:22:11.797Z,42.70
2019-03-23T02:24:44.317Z,43.00
2019-03-23T02:27:16.817Z,43.00
2019-03-23T02:29:49.338Z,43.00
2019-03-23T02:32:21.797Z,43.10
2019-03-23T02:34:54.386Z,43.30
2019-03-23T02:37:28.185Z,43.40
2019-03-23T02:40:00.892Z,43.50
2019-03-23T02:42:34.102Z,43.50
2019-03-23T02:45:08.016Z,43.60
2019-03-23T02:47:40.605Z,43.60
2019-03-23T02:50:13.373Z,43.70
2019-03-23T02:52:45.883Z,43.90
2019-03-23T02:55:18.359Z,44.10
2019-03-23T02:57:50.932Z,44.40
2019-03-23T03:00:23.404Z,44.20
2019-03-23T03:02:55.923Z,44.20
2019-03-23T03:05:28.532Z,44.90
2019-03-23T03:10:41.608Z,44.30
2019-03-23T03:13:14.133Z,44.70
2019-03-23T03:15:46.641Z,44.80
2019-03-23T03:18:19.126Z,44.80
2019-03-23T03:20:51.819Z,44.90
2019-03-23T03:23:24.332Z,44.90
2019-03-23T03:25:56.836Z,45.50
2019-03-23T03:28:29.328Z,44.80
2019-03-23T03:31:01.860Z,44.80
2019-03-23T03:33:34.482Z,45.00
2019-03-23T03:36:06.967Z,44.90
2019-03-23T03:38:39.423Z,44.90
2019-03-23T03:41:11.931Z,44.90
2019-03-23T03:43:44.522Z,45.20
2019-03-23T03:46:16.986Z,45.10
2019-03-23T03:48:49.469Z,45.30
2019-03-23T03:51:21.976Z,45.20
2019-03-23T03:53:54.464Z,45.30
2019-03-23T03:56:27.087Z,45.50
2019-03-23T03:58:59.935Z,45.50
2019-03-23T04:01:32.518Z,45.40
2019-03-23T04:04:05.164Z,45.50
2019-03-23T04:06:37.633Z,45.50
2019-03-23T04:09:10.216Z,45.60
2019-03-23T04:11:42.701Z,45.50
2019-03-23T04:14:15.234Z,45.50
2019-03-23T04:16:47.701Z,45.70
2019-03-23T04:19:20.182Z,45.60
2019-03-23T04:21:52.713Z,45.80
2019-03-23T04:24:25.191Z,45.70
2019-03-23T04:26:57.699Z,45.90
2019-03-23T04:29:30.289Z,46.00
2019-03-23T04:32:02.826Z,46.00
2019-03-23T04:34:35.454Z,46.10
2019-03-23T04:37:09.249Z,46.20
2019-03-23T04:39:41.852Z,46.20
2019-03-23T04:42:14.424Z,46.10
2019-03-23T04:44:47.000Z,46.30
2019-03-23T04:50:00.982Z,46.30
2019-03-23T04:52:33.464Z,46.50
2019-03-23T04:55:08.449Z,46.50
2019-03-23T04:57:41.983Z,46.50
2019-03-23T05:00:15.767Z,46.60
2019-03-23T05:02:48.239Z,46.60
2019-03-23T05:05:20.724Z,46.60
2019-03-23T05:07:53.212Z,46.50
2019-03-23T05:10:25.719Z,46.40
2019-03-23T05:12:58.173Z,46.60
2019-03-23T05:15:30.723Z,46.70
2019-03-23T05:18:03.272Z,46.60
2019-03-23T05:20:35.897Z,46.60
2019-03-23T05:23:08.367Z,46.60
2019-03-23T05:25:41.010Z,46.50
2019-03-23T05:28:13.507Z,46.30
2019-03-23T05:30:46.023Z,46.40
2019-03-23T05:33:18.590Z,46.30
2019-03-23T05:35:51.112Z,46.20
2019-03-23T05:38:23.595Z,46.30
2019-03-23T05:40:56.081Z,46.40
2019-03-23T05:43:28.590Z,46.40
2019-03-23T05:46:01.176Z,46.20
2019-03-23T05:48:34.907Z,46.30
2019-03-23T05:51:07.670Z,46.40
2019-03-23T05:53:40.214Z,46.40
2019-03-23T05:56:12.823Z,46.40
2019-03-23T05:58:45.341Z,46.30
2019-03-23T06:01:19.188Z,46.30
2019-03-23T06:03:51.855Z,46.40
2019-03-23T06:06:24.388Z,46.50
2019-03-23T06:08:57.040Z,46.40
2019-03-23T06:11:29.666Z,46.40
2019-03-23T06:14:02.151Z,46.40
2019-03-23T06:16:34.637Z,46.40
2019-03-23T06:19:07.242Z,46.40
2019-03-23T06:21:39.798Z,46.40
2019-03-23T06:24:13.873Z,46.30
2019-03-23T06:26:46.391Z,46.30
2019-03-23T06:29:18.894Z,46.30
2019-03-23T06:31:51.468Z,46.30
2019-03-23T06:34:24.115Z,46.40
2019-03-23T06:36:56.601Z,46.30
2019-03-23T06:39:30.447Z,46.20
2019-03-23T06:42:02.981Z,46.30
2019-03-23T06:44:35.589Z,46.30
2019-03-23T06:47:08.148Z,46.40
2019-03-23T06:49:40.651Z,46.40
2019-03-23T06:52:13.257Z,46.40
2019-03-23T06:54:45.795Z,46.30
2019-03-23T06:57:18.396Z,46.30
2019-03-23T06:59:50.934Z,46.40
2019-03-23T07:02:23.751Z,46.30
2019-03-23T07:04:56.280Z,46.50
2019-03-23T07:07:28.822Z,46.40
2019-03-23T07:10:01.441Z,46.40
2019-03-23T07:12:33.931Z,46.40
2019-03-23T07:15:07.960Z,46.60
2019-03-23T07:17:40.497Z,46.50
2019-03-23T07:20:14.588Z,46.50
2019-03-23T07:22:47.136Z,46.50
2019-03-23T07:25:19.645Z,46.50
2019-03-23T07:27:54.688Z,46.50
2019-03-23T07:30:29.119Z,46.50
2019-03-23T07:33:01.697Z,46.50
2019-03-23T07:35:34.273Z,46.60
2019-03-23T07:38:06.843Z,46.60
2019-03-23T07:40:39.365Z,46.50
2019-03-23T07:43:11.997Z,46.50
2019-03-23T07:45:44.674Z,46.50
2019-03-23T07:48:18.871Z,46.40
2019-03-23T07:50:54.752Z,46.50
2019-03-23T07:53:27.498Z,46.50
2019-03-23T07:56:00.153Z,46.50
2019-03-23T07:58:32.810Z,46.30
2019-03-23T08:01:05.422Z,46.50
2019-03-23T08:03:39.085Z,46.50
2019-03-23T08:06:11.662Z,46.50
2019-03-23T08:08:44.184Z,46.50
2019-03-23T08:11:18.035Z,46.40
2019-03-23T08:13:50.709Z,46.50
2019-03-23T08:16:23.261Z,46.40
2019-03-23T08:18:55.935Z,46.40
2019-03-23T08:21:28.573Z,46.50
2019-03-23T08:24:21.391Z,46.40
2019-03-23T08:26:55.129Z,46.50
2019-03-23T08:29:27.668Z,46.30
2019-03-23T08:32:00.305Z,46.30
2019-03-23T08:34:34.482Z,46.40
2019-03-23T08:37:07.089Z,46.30
2019-03-23T08:39:48.124Z,46.30
2019-03-23T08:42:14.000Z,46.30
2019-03-23T08:44:46.604Z,46.30
2019-03-23T08:47:19.193Z,46.30
2019-03-23T08:49:51.838Z,46.10
2019-03-23T08:52:24.471Z,46.00
2019-03-23T08:54:57.136Z,46.10
2019-03-23T08:57:30.783Z,45.80
2019-03-23T09:00:03.396Z,45.90
2019-03-23T09:02:36.000Z,45.90
2019-03-23T09:05:08.810Z,45.90
2019-03-23T09:07:41.541Z,45.90
2019-03-23T09:10:14.484Z,45.80
2019-03-23T09:12:50.120Z,45.90
2019-03-23T09:15:25.594Z,45.80
2019-03-23T09:17:58.399Z,45.80
2019-03-23T09:20:32.284Z,45.80
2019-03-23T09:23:06.202Z,45.90
2019-03-23T09:25:39.755Z,45.90
2019-03-23T09:28:12.479Z,45.80
2019-03-23T09:30:46.264Z,45.80
2019-03-23T09:33:21.562Z,45.80
2019-03-23T09:35:54.258Z,45.80
2019-03-23T09:38:26.834Z,46.00
2019-03-23T09:40:59.571Z,45.80
2019-03-23T09:43:33.916Z,45.90
2019-03-23T09:46:07.684Z,45.80
2019-03-23T09:48:40.222Z,45.80
2019-03-23T09:51:12.869Z,45.80
2019-03-23T09:53:45.527Z,45.90
2019-03-23T09:56:18.156Z,45.90
2019-03-23T09:58:51.842Z,45.90
2019-03-23T10:01:24.461Z,45.90
2019-03-23T10:03:57.083Z,45.90
2019-03-23T10:06:29.665Z,45.80
2019-03-23T10:09:04.609Z,45.80
2019-03-23T10:11:38.438Z,45.90
2019-03-23T10:14:11.121Z,45.90
2019-03-23T10:16:43.750Z,45.90
2019-03-23T10:19:16.432Z,45.80
2019-03-23T10:21:48.963Z,45.70
2019-03-23T10:24:21.732Z,45.60
2019-03-23T10:26:54.379Z,45.40
2019-03-23T10:29:26.979Z,45.40
2019-03-23T10:31:59.575Z,45.50
2019-03-23T10:34:32.188Z,45.60
2019-03-23T10:37:04.970Z,45.60
2019-03-23T10:39:39.006Z,45.60
2019-03-23T10:42:11.733Z,45.60
2019-03-23T10:44:45.028Z,45.60
2019-03-23T10:47:19.581Z,45.60
2019-03-23T10:49:52.274Z,45.60
2019-03-23T10:52:25.026Z,45.50
2019-03-23T10:54:57.634Z,45.60
2019-03-23T10:57:30.347Z,45.60
2019-03-23T11:00:06.662Z,45.60
2019-03-23T11:02:39.346Z,45.50
2019-03-23T11:05:12.571Z,45.40
2019-03-23T11:07:47.391Z,45.50
2019-03-23T11:10:20.206Z,45.60
2019-03-23T11:12:53.981Z,45.50
2019-03-23T11:15:27.915Z,45.30
2019-03-23T11:18:00.752Z,45.20
2019-03-23T11:20:33.649Z,45.30
2019-03-23T11:23:06.418Z,45.10
2019-03-23T11:25:39.057Z,45.00
2019-03-23T11:28:11.787Z,44.80
2019-03-23T11:30:44.356Z,44.60
2019-03-23T11:33:16.955Z,44.60
2019-03-23T11:35:57.532Z,44.50
2019-03-23T11:38:23.816Z,44.50
2019-03-23T11:40:56.408Z,44.40
2019-03-23T11:43:28.989Z,44.70
2019-03-23T11:46:01.769Z,44.10
2019-03-23T11:48:34.444Z,43.90
2019-03-23T11:51:07.090Z,43.90
2019-03-23T11:53:39.930Z,43.90
2019-03-23T11:56:12.907Z,43.90
2019-03-23T11:58:45.563Z,43.80
2019-03-23T12:01:18.272Z,43.40
2019-03-23T12:03:52.233Z,43.10
2019-03-23T12:06:26.241Z,42.80
2019-03-23T12:08:58.803Z,42.50
2019-03-23T12:11:31.670Z,42.30
2019-03-23T12:14:04.761Z,42.00
2019-03-23T12:16:37.363Z,41.90
2019-03-23T12:19:09.927Z,42.00
2019-03-23T12:21:42.520Z,42.00
2019-03-23T12:24:15.207Z,42.10
2019-03-23T12:26:47.813Z,41.90
2019-03-23T12:29:20.451Z,41.90
2019-03-23T12:31:52.988Z,41.90
2019-03-23T12:34:25.674Z,42.00
2019-03-23T12:36:59.483Z,42.00
2019-03-23T12:39:32.135Z,42.10
2019-03-23T12:42:04.758Z,42.70
2019-03-23T12:44:37.400Z,42.20
2019-03-23T12:47:10.203Z,42.20
2019-03-23T12:49:43.034Z,42.30
2019-03-23T12:52:15.706Z,42.30
2019-03-23T12:54:48.386Z,42.30
2019-03-23T12:57:20.997Z,42.60
2019-03-23T12:59:53.970Z,42.40
2019-03-23T13:02:26.646Z,42.40
2019-03-23T13:04:59.443Z,42.70
2019-03-23T13:07:32.053Z,42.40
2019-03-23T13:10:06.529Z,42.20
2019-03-23T13:12:39.251Z,42.40
2019-03-23T13:15:15.807Z,42.50
2019-03-23T13:17:48.640Z,42.70
2019-03-23T13:20:23.224Z,42.80
2019-03-23T13:22:55.776Z,42.80
2019-03-23T13:25:28.434Z,42.70
2019-03-23T13:28:01.105Z,42.80
2019-03-23T13:30:33.932Z,42.80
2019-03-23T13:33:08.922Z,42.90
2019-03-23T13:35:42.733Z,42.90
2019-03-23T13:38:15.575Z,42.90
2019-03-23T13:40:48.098Z,42.80
2019-03-23T13:43:23.568Z,42.80
2019-03-23T13:45:56.295Z,42.60
2019-03-23T13:48:28.863Z,42.80
2019-03-23T13:51:01.483Z,42.90
2019-03-23T13:53:34.200Z,43.60
2019-03-23T13:56:06.924Z,43.10
2019-03-23T13:58:39.620Z,43.00
2019-03-23T14:01:13.994Z,43.00
2019-03-23T14:03:46.681Z,43.00
2019-03-23T14:06:19.316Z,43.00
2019-03-23T14:08:52.433Z,43.00
2019-03-23T14:11:26.347Z,43.50
2019-03-23T14:13:59.022Z,43.40
2019-03-23T14:16:31.824Z,43.40
2019-03-23T14:19:04.509Z,43.30
2019-03-23T14:21:48.411Z,43.20
2019-03-23T14:24:21.569Z,43.30
2019-03-23T14:26:54.302Z,43.10
2019-03-23T14:29:28.713Z,43.90
2019-03-23T14:32:01.492Z,43.30
2019-03-23T14:34:34.327Z,43.30
2019-03-23T14:37:07.016Z,43.40
2019-03-23T14:39:39.658Z,43.30
2019-03-23T14:42:12.241Z,43.30
2019-03-23T14:44:44.899Z,43.30
2019-03-23T14:47:17.671Z,43.40
2019-03-23T14:49:50.463Z,43.40
2019-03-23T14:52:23.264Z,43.50
2019-03-23T14:54:55.988Z,43.60
2019-03-23T14:57:28.695Z,43.60
2019-03-23T15:00:01.392Z,43.70
2019-03-23T15:02:34.062Z,43.80
2019-03-23T15:05:07.333Z,43.80
2019-03-23T15:07:41.372Z,43.90
2019-03-23T15:10:14.386Z,43.90
2019-03-23T15:12:47.045Z,43.90
2019-03-23T15:15:19.628Z,43.90
2019-03-23T15:17:54.828Z,44.00
2019-03-23T15:20:28.626Z,43.90
2019-03-23T15:23:02.669Z,43.90
2019-03-23T15:25:35.294Z,44.10
2019-03-23T15:28:08.071Z,44.20
2019-03-23T15:30:40.652Z,44.10
2019-03-23T15:33:13.334Z,44.10
2019-03-23T15:35:46.189Z,44.10
2019-03-23T15:38:18.965Z,44.20
2019-03-23T15:40:51.590Z,44.20
2019-03-23T15:43:24.217Z,44.10
2019-03-23T15:45:57.911Z,44.10
2019-03-23T15:48:30.584Z,44.20
2019-03-23T15:51:03.307Z,44.20
2019-03-23T15:53:36.022Z,44.20
2019-03-23T15:56:09.988Z,44.20
2019-03-23T15:58:42.638Z,44.30
2019-03-23T16:01:15.394Z,44.30
2019-03-23T16:03:47.956Z,44.30
2019-03-23T16:06:21.697Z,44.40
2019-03-23T16:08:54.488Z,44.50
2019-03-23T16:11:27.184Z,44.50
2019-03-23T16:13:59.706Z,44.50
2019-03-23T16:16:35.353Z,44.60
2019-03-23T16:19:08.114Z,44.70
2019-03-23T16:21:40.915Z,44.70
2019-03-23T16:24:13.605Z,44.80
2019-03-23T16:26:46.469Z,44.80
2019-03-23T16:29:21.554Z,44.90
2019-03-23T16:31:57.236Z,45.00
2019-03-23T16:34:29.872Z,45.00
2019-03-23T16:37:02.629Z,45.10
2019-03-23T16:39:36.549Z,45.20
2019-03-23T16:42:09.427Z,45.20
2019-03-23T16:44:42.096Z,45.30
2019-03-23T16:47:14.795Z,45.30
2019-03-23T16:49:47.394Z,46.00
2019-03-23T16:52:20.111Z,45.30
2019-03-23T16:54:54.684Z,45.30
2019-03-23T16:57:27.389Z,45.60
2019-03-23T17:00:00.304Z,45.60
2019-03-23T17:02:33.155Z,45.60
2019-03-23T17:05:06.461Z,45.70
2019-03-23T17:07:39.106Z,45.60
2019-03-23T17:10:11.936Z,45.60
2019-03-23T17:12:54.973Z,45.70
2019-03-23T17:15:18.959Z,45.80
2019-03-23T17:17:52.002Z,45.80
2019-03-23T17:20:24.769Z,45.90
2019-03-23T17:22:57.443Z,45.90
2019-03-23T17:25:32.003Z,46.00
2019-03-23T17:28:04.549Z,46.10
2019-03-23T17:30:37.353Z,46.00
2019-03-23T17:33:10.087Z,46.20
2019-03-23T17:36:02.915Z,46.20
2019-03-23T17:38:35.596Z,46.40
2019-03-23T17:41:10.254Z,46.40
2019-03-23T17:43:42.667Z,46.60
2019-03-23T17:46:16.642Z,46.80
2019-03-23T17:48:51.112Z,46.90
2019-03-23T17:51:25.208Z,47.10
2019-03-23T17:53:59.296Z,47.30
2019-03-23T17:56:31.939Z,47.60
2019-03-23T17:59:04.606Z,47.70
2019-03-23T18:01:38.514Z,47.60
2019-03-23T18:04:11.192Z,48.00
2019-03-23T18:06:43.839Z,48.10
2019-03-23T18:09:16.407Z,48.20
2019-03-23T18:11:49.314Z,48.40
2019-03-23T18:14:22.178Z,48.70
2019-03-23T18:16:55.068Z,48.80
2019-03-23T18:19:27.740Z,48.90
2019-03-23T18:22:00.424Z,49.00
2019-03-23T18:24:33.068Z,49.10
2019-03-23T18:27:05.741Z,49.30
2019-03-23T18:29:38.534Z,50.00
2019-03-23T18:32:11.212Z,49.40
2019-03-23T18:34:44.357Z,49.50
2019-03-23T18:37:17.013Z,49.60
2019-03-23T18:39:49.715Z,49.70
2019-03-23T18:42:22.452Z,49.80
2019-03-23T18:44:55.957Z,49.90
2019-03-23T18:47:29.592Z,50.00
2019-03-23T18:50:02.381Z,50.10
2019-03-23T18:52:34.881Z,50.10
2019-03-23T18:55:08.040Z,50.80
2019-03-23T18:57:40.701Z,50.20
2019-03-23T19:00:18.479Z,50.20
2019-03-23T19:02:52.724Z,50.30
2019-03-23T19:05:25.431Z,50.20
2019-03-23T19:07:58.010Z,50.40
2019-03-23T19:10:30.968Z,50.30
2019-03-23T19:13:03.658Z,50.40
2019-03-23T19:15:37.394Z,50.40
2019-03-23T19:18:11.604Z,50.10
2019-03-23T19:20:45.285Z,50.40
2019-03-23T19:23:20.214Z,50.30
2019-03-23T19:25:52.855Z,50.40
2019-03-23T19:28:44.220Z,50.40
2019-03-23T19:31:16.849Z,50.40
2019-03-23T19:33:49.692Z,50.40
2019-03-23T19:36:22.366Z,50.40
2019-03-23T19:38:56.535Z,50.50
2019-03-23T19:41:31.214Z,50.60
2019-03-23T19:44:04.045Z,50.70
2019-03-23T19:46:36.780Z,50.80
2019-03-23T19:49:09.445Z,50.80
2019-03-23T19:51:42.084Z,50.90
2019-03-23T19:54:14.877Z,51.00
2019-03-23T19:56:49.602Z,50.90
2019-03-23T19:59:22.336Z,51.00
2019-03-23T20:01:54.912Z,51.10
2019-03-23T20:04:27.444Z,51.20
2019-03-23T20:07:01.066Z,51.30
2019-03-23T20:09:33.780Z,51.30
2019-03-23T20:12:06.588Z,51.40
2019-03-23T20:14:39.168Z,51.40
2019-03-23T20:17:11.990Z,51.40
2019-03-23T20:19:44.658Z,51.20
2019-03-23T20:22:19.191Z,51.10
2019-03-23T20:24:53.588Z,51.20
2019-03-23T20:27:28.586Z,51.20
2019-03-23T20:30:01.287Z,51.10
2019-03-23T20:32:34.058Z,51.20
2019-03-23T20:35:08.234Z,51.30
2019-03-23T20:37:40.772Z,51.20
2019-03-23T20:40:13.678Z,51.10
2019-03-23T20:42:48.380Z,51.00
2019-03-23T20:45:30.711Z,50.90
2019-03-23T20:48:03.849Z,50.70
2019-03-23T20:50:37.526Z,50.60
2019-03-23T20:53:10.664Z,50.50
2019-03-23T20:55:43.264Z,50.40
2019-03-23T20:58:17.819Z,50.40
2019-03-23T21:00:51.474Z,50.40
2019-03-23T21:03:24.001Z,50.30
2019-03-23T21:05:56.727Z,50.10
2019-03-23T21:08:29.370Z,50.10
2019-03-23T21:11:02.148Z,50.10
2019-03-23T21:13:34.943Z,50.30
2019-03-23T21:16:07.667Z,50.20
2019-03-23T21:18:40.598Z,50.30
2019-03-23T21:21:13.250Z,50.40
2019-03-23T21:23:46.027Z,50.20
2019-03-23T21:26:18.598Z,50.30
2019-03-23T21:28:52.285Z,50.50
2019-03-23T21:31:25.000Z,50.30
2019-03-23T21:33:57.613Z,50.10
2019-03-23T21:36:30.335Z,50.00
2019-03-23T21:39:06.403Z,50.00
2019-03-23T21:41:38.966Z,49.90
2019-03-23T21:44:11.904Z,49.80
2019-03-23T21:46:44.450Z,49.80
2019-03-23T21:49:17.125Z,49.70
2019-03-23T21:51:49.987Z,49.90
2019-03-23T21:54:22.692Z,49.90
2019-03-23T21:56:55.287Z,50.10
2019-03-23T21:59:29.410Z,50.10
2019-03-23T22:02:03.546Z,50.00
2019-03-23T22:04:36.259Z,50.00
2019-03-23T22:07:10.398Z,50.00
2019-03-23T22:09:43.003Z,50.00
2019-03-23T22:12:15.657Z,50.00
2019-03-23T22:14:48.506Z,49.90
2019-03-23T22:17:21.172Z,49.80
2019-03-23T22:19:53.764Z,49.90
2019-03-23T22:22:26.405Z,49.80
2019-03-23T22:24:59.033Z,49.90
2019-03-23T22:27:31.704Z,49.60
2019-03-23T22:30:04.618Z,49.70
2019-03-23T22:32:37.515Z,49.60
2019-03-23T22:35:11.101Z,49.60
2019-03-23T22:37:43.847Z,49.60
2019-03-23T22:40:17.114Z,49.60
2019-03-23T22:42:49.945Z,49.60
2019-03-23T22:45:22.645Z,49.60
2019-03-23T22:47:55.299Z,49.60
2019-03-23T22:50:27.882Z,49.60
2019-03-23T22:53:00.884Z,49.60
2019-03-23T22:55:34.618Z,49.60
2019-03-23T22:58:08.201Z,49.50
2019-03-23T23:00:45.456Z,49.60
2019-03-23T23:03:18.193Z,49.60
2019-03-23T23:05:50.809Z,49.60
2019-03-23T23:08:25.257Z,49.60
2019-03-23T23:10:57.880Z,49.60
2019-03-23T23:13:30.525Z,49.70
2019-03-23T23:16:03.225Z,49.60
2019-03-23T23:18:37.611Z,49.80
2019-03-23T23:21:10.103Z,49.70
2019-03-23T23:23:42.760Z,49.70
2019-03-23T23:26:16.322Z,49.80
2019-03-23T23:28:49.034Z,49.80
2019-03-23T23:31:21.608Z,49.90
2019-03-23T23:33:54.114Z,49.90
2019-03-23T23:36:28.200Z,50.00
2019-03-23T23:39:05.389Z,50.10
2019-03-23T23:41:37.972Z,50.00
2019-03-23T23:44:10.739Z,50.00
2019-03-23T23:46:44.497Z,50.10
2019-03-23T23:49:16.982Z,50.00
2019-03-23T23:51:50.489Z,50.00
2019-03-23T23:54:23.196Z,50.00
2019-03-23T23:56:56.847Z,50.10
2019-03-23T23:59:29.367Z,49.90
